sensor_id;sensor_type;location;lat;lon;timestamp;P1;durP1;ratioP1;P2;durP2;ratioP2
58137;SDS011;43955;47.362;18.930;2024-01-15T00:01:52;75.45;;;34.90;;
58137;SDS011;43955;47.362;18.930;2024-01-15T00:04:19;71.78;;;34.38;;
58137;SDS011;43955;47.362;18.930;2024-01-15T00:06:49;74.72;;;32.70;;
58137;SDS011;43955;47.362;18.930;2024-01-15T00:09:16;76.93;;;32.95;;
58137;SDS011;43955;47.362;18.930;2024-01-15T00:11:44;64.87;;;30.88;;
58137;SDS011;43955;47.362;18.930;2024-01-15T00:14:11;75.90;;;31.30;;
58137;SDS011;43955;47.362;18.930;2024-01-15T00:16:40;68.03;;;32.95;;
58137;SDS011;43955;47.362;18.930;2024-01-15T00:19:07;67.35;;;31.33;;
58137;SDS011;43955;47.362;18.930;2024-01-15T00:21:35;67.25;;;31.35;;
58137;SDS011;43955;47.362;18.930;2024-01-15T00:24:02;65.32;;;31.12;;
58137;SDS011;43955;47.362;18.930;2024-01-15T00:26:30;70.62;;;31.37;;
58137;SDS011;43955;47.362;18.930;2024-01-15T00:28:58;64.25;;;29.63;;
58137;SDS011;43955;47.362;18.930;2024-01-15T00:31:25;65.82;;;31.12;;
58137;SDS011;43955;47.362;18.930;2024-01-15T00:33:53;65.32;;;29.35;;
58137;SDS011;43955;47.362;18.930;2024-01-15T00:36:21;62.67;;;29.05;;
58137;SDS011;43955;47.362;18.930;2024-01-15T00:38:48;66.87;;;30.15;;
58137;SDS011;43955;47.362;18.930;2024-01-15T00:41:16;76.03;;;31.05;;
58137;SDS011;43955;47.362;18.930;2024-01-15T00:43:45;64.43;;;29.70;;
58137;SDS011;43955;47.362;18.930;2024-01-15T00:46:12;67.68;;;30.70;;
58137;SDS011;43955;47.362;18.930;2024-01-15T00:48:40;65.45;;;30.62;;
58137;SDS011;43955;47.362;18.930;2024-01-15T00:51:07;67.25;;;30.55;;
58137;SDS011;43955;47.362;18.930;2024-01-15T00:53:35;66.70;;;29.98;;
58137;SDS011;43955;47.362;18.930;2024-01-15T00:56:02;63.50;;;30.40;;
58137;SDS011;43955;47.362;18.930;2024-01-15T00:58:30;67.90;;;30.05;;
58137;SDS011;43955;47.362;18.930;2024-01-15T01:00:57;59.88;;;29.30;;
58137;SDS011;43955;47.362;18.930;2024-01-15T01:03:25;59.78;;;27.58;;
58137;SDS011;43955;47.362;18.930;2024-01-15T01:05:52;66.87;;;30.52;;
58137;SDS011;43955;47.362;18.930;2024-01-15T01:08:20;73.78;;;30.80;;
58137;SDS011;43955;47.362;18.930;2024-01-15T01:10:47;72.87;;;30.85;;
58137;SDS011;43955;47.362;18.930;2024-01-15T01:13:16;67.65;;;30.67;;
58137;SDS011;43955;47.362;18.930;2024-01-15T01:15:44;68.90;;;31.12;;
58137;SDS011;43955;47.362;18.930;2024-01-15T01:18:11;74.57;;;31.73;;
58137;SDS011;43955;47.362;18.930;2024-01-15T01:20:39;77.85;;;31.23;;
58137;SDS011;43955;47.362;18.930;2024-01-15T01:23:07;74.97;;;31.27;;
58137;SDS011;43955;47.362;18.930;2024-01-15T01:25:34;69.65;;;30.10;;
58137;SDS011;43955;47.362;18.930;2024-01-15T01:28:01;73.97;;;31.62;;
58137;SDS011;43955;47.362;18.930;2024-01-15T01:30:29;64.90;;;29.58;;
58137;SDS011;43955;47.362;18.930;2024-01-15T01:32:56;77.75;;;31.05;;
58137;SDS011;43955;47.362;18.930;2024-01-15T01:35:24;69.30;;;29.80;;
58137;SDS011;43955;47.362;18.930;2024-01-15T01:37:52;72.97;;;31.25;;
58137;SDS011;43955;47.362;18.930;2024-01-15T01:40:19;67.15;;;30.60;;
58137;SDS011;43955;47.362;18.930;2024-01-15T01:42:47;81.93;;;30.23;;
58137;SDS011;43955;47.362;18.930;2024-01-15T01:45:15;91.63;;;37.25;;
58137;SDS011;43955;47.362;18.930;2024-01-15T01:47:42;67.03;;;29.83;;
58137;SDS011;43955;47.362;18.930;2024-01-15T01:50:11;60.33;;;29.33;;
58137;SDS011;43955;47.362;18.930;2024-01-15T01:52:40;60.63;;;28.48;;
58137;SDS011;43955;47.362;18.930;2024-01-15T01:55:07;59.70;;;26.20;;
58137;SDS011;43955;47.362;18.930;2024-01-15T01:57:36;63.10;;;27.58;;
58137;SDS011;43955;47.362;18.930;2024-01-15T02:00:04;62.70;;;27.60;;
58137;SDS011;43955;47.362;18.930;2024-01-15T02:02:37;64.07;;;28.27;;
58137;SDS011;43955;47.362;18.930;2024-01-15T02:05:04;64.90;;;30.88;;
58137;SDS011;43955;47.362;18.930;2024-01-15T02:07:34;52.85;;;26.73;;
58137;SDS011;43955;47.362;18.930;2024-01-15T02:10:02;57.35;;;26.87;;
58137;SDS011;43955;47.362;18.930;2024-01-15T02:12:29;55.70;;;24.95;;
58137;SDS011;43955;47.362;18.930;2024-01-15T02:14:56;60.90;;;28.58;;
58137;SDS011;43955;47.362;18.930;2024-01-15T02:17:24;58.15;;;27.05;;
58137;SDS011;43955;47.362;18.930;2024-01-15T02:19:51;54.00;;;27.02;;
58137;SDS011;43955;47.362;18.930;2024-01-15T02:22:19;49.50;;;25.60;;
58137;SDS011;43955;47.362;18.930;2024-01-15T02:24:46;60.88;;;27.08;;
58137;SDS011;43955;47.362;18.930;2024-01-15T02:27:14;55.03;;;25.12;;
58137;SDS011;43955;47.362;18.930;2024-01-15T02:29:42;51.63;;;25.70;;
58137;SDS011;43955;47.362;18.930;2024-01-15T02:32:09;55.58;;;26.08;;
58137;SDS011;43955;47.362;18.930;2024-01-15T02:34:36;54.10;;;26.27;;
58137;SDS011;43955;47.362;18.930;2024-01-15T02:37:04;58.83;;;27.90;;
58137;SDS011;43955;47.362;18.930;2024-01-15T02:39:34;56.17;;;26.40;;
58137;SDS011;43955;47.362;18.930;2024-01-15T02:42:01;53.08;;;24.73;;
58137;SDS011;43955;47.362;18.930;2024-01-15T02:44:28;75.40;;;41.10;;
58137;SDS011;43955;47.362;18.930;2024-01-15T02:46:55;71.30;;;36.03;;
58137;SDS011;43955;47.362;18.930;2024-01-15T02:49:23;74.90;;;37.15;;
58137;SDS011;43955;47.362;18.930;2024-01-15T02:51:51;50.10;;;22.75;;
58137;SDS011;43955;47.362;18.930;2024-01-15T02:54:18;72.90;;;34.97;;
58137;SDS011;43955;47.362;18.930;2024-01-15T02:56:45;58.65;;;30.70;;
58137;SDS011;43955;47.362;18.930;2024-01-15T02:59:12;50.83;;;24.10;;
58137;SDS011;43955;47.362;18.930;2024-01-15T03:01:39;44.80;;;21.77;;
58137;SDS011;43955;47.362;18.930;2024-01-15T03:04:07;47.90;;;23.23;;
58137;SDS011;43955;47.362;18.930;2024-01-15T03:06:34;46.67;;;22.67;;
58137;SDS011;43955;47.362;18.930;2024-01-15T03:09:01;49.20;;;24.50;;
58137;SDS011;43955;47.362;18.930;2024-01-15T03:11:36;58.05;;;22.70;;
58137;SDS011;43955;47.362;18.930;2024-01-15T03:16:32;45.83;;;20.95;;
58137;SDS011;43955;47.362;18.930;2024-01-15T03:18:59;45.95;;;21.37;;
58137;SDS011;43955;47.362;18.930;2024-01-15T03:21:26;65.30;;;31.25;;
58137;SDS011;43955;47.362;18.930;2024-01-15T03:23:54;58.35;;;25.10;;
58137;SDS011;43955;47.362;18.930;2024-01-15T03:26:21;46.72;;;23.85;;
58137;SDS011;43955;47.362;18.930;2024-01-15T03:28:48;42.58;;;21.95;;
58137;SDS011;43955;47.362;18.930;2024-01-15T03:31:15;55.70;;;26.90;;
58137;SDS011;43955;47.362;18.930;2024-01-15T03:33:42;101.95;;;28.10;;
58137;SDS011;43955;47.362;18.930;2024-01-15T03:36:10;46.28;;;22.35;;
58137;SDS011;43955;47.362;18.930;2024-01-15T03:38:41;48.03;;;20.37;;
58137;SDS011;43955;47.362;18.930;2024-01-15T03:41:08;44.42;;;20.23;;
58137;SDS011;43955;47.362;18.930;2024-01-15T03:43:35;44.40;;;20.55;;
58137;SDS011;43955;47.362;18.930;2024-01-15T03:46:03;46.63;;;21.25;;
58137;SDS011;43955;47.362;18.930;2024-01-15T03:48:34;52.50;;;20.83;;
58137;SDS011;43955;47.362;18.930;2024-01-15T03:51:01;44.40;;;20.12;;
58137;SDS011;43955;47.362;18.930;2024-01-15T03:53:29;51.67;;;20.35;;
58137;SDS011;43955;47.362;18.930;2024-01-15T03:55:56;51.63;;;21.73;;
58137;SDS011;43955;47.362;18.930;2024-01-15T03:58:23;42.08;;;21.48;;
58137;SDS011;43955;47.362;18.930;2024-01-15T04:00:51;45.10;;;20.73;;
58137;SDS011;43955;47.362;18.930;2024-01-15T04:03:18;44.75;;;20.60;;
58137;SDS011;43955;47.362;18.930;2024-01-15T04:05:45;52.65;;;22.48;;
58137;SDS011;43955;47.362;18.930;2024-01-15T04:08:12;51.45;;;21.90;;
58137;SDS011;43955;47.362;18.930;2024-01-15T04:10:40;47.05;;;21.58;;
58137;SDS011;43955;47.362;18.930;2024-01-15T04:13:07;50.42;;;24.85;;
58137;SDS011;43955;47.362;18.930;2024-01-15T04:15:34;54.35;;;22.90;;
58137;SDS011;43955;47.362;18.930;2024-01-15T04:18:02;48.87;;;21.52;;
58137;SDS011;43955;47.362;18.930;2024-01-15T04:20:29;50.83;;;22.42;;
58137;SDS011;43955;47.362;18.930;2024-01-15T04:22:56;41.28;;;18.62;;
58137;SDS011;43955;47.362;18.930;2024-01-15T04:25:23;54.53;;;22.87;;
58137;SDS011;43955;47.362;18.930;2024-01-15T04:27:50;53.20;;;23.35;;
58137;SDS011;43955;47.362;18.930;2024-01-15T04:30:18;91.18;;;38.40;;
58137;SDS011;43955;47.362;18.930;2024-01-15T04:32:45;49.03;;;23.83;;
58137;SDS011;43955;47.362;18.930;2024-01-15T04:35:14;45.00;;;20.30;;
58137;SDS011;43955;47.362;18.930;2024-01-15T04:37:42;53.87;;;22.23;;
58137;SDS011;43955;47.362;18.930;2024-01-15T04:40:09;48.97;;;21.48;;
58137;SDS011;43955;47.362;18.930;2024-01-15T04:42:36;50.08;;;22.73;;
58137;SDS011;43955;47.362;18.930;2024-01-15T04:45:04;49.20;;;22.92;;
58137;SDS011;43955;47.362;18.930;2024-01-15T04:47:31;62.67;;;27.17;;
58137;SDS011;43955;47.362;18.930;2024-01-15T04:49:58;48.87;;;22.50;;
58137;SDS011;43955;47.362;18.930;2024-01-15T04:52:26;59.10;;;21.85;;
58137;SDS011;43955;47.362;18.930;2024-01-15T04:54:53;65.80;;;24.95;;
58137;SDS011;43955;47.362;18.930;2024-01-15T04:57:23;46.25;;;22.65;;
58137;SDS011;43955;47.362;18.930;2024-01-15T04:59:50;52.65;;;22.52;;
58137;SDS011;43955;47.362;18.930;2024-01-15T05:02:17;46.03;;;20.85;;
58137;SDS011;43955;47.362;18.930;2024-01-15T05:04:44;42.28;;;19.45;;
58137;SDS011;43955;47.362;18.930;2024-01-15T05:07:11;47.28;;;21.25;;
58137;SDS011;43955;47.362;18.930;2024-01-15T05:09:39;55.15;;;23.42;;
58137;SDS011;43955;47.362;18.930;2024-01-15T05:12:06;49.15;;;22.83;;
58137;SDS011;43955;47.362;18.930;2024-01-15T05:14:33;47.80;;;21.42;;
58137;SDS011;43955;47.362;18.930;2024-01-15T05:17:01;54.55;;;26.05;;
58137;SDS011;43955;47.362;18.930;2024-01-15T05:19:28;76.62;;;28.00;;
58137;SDS011;43955;47.362;18.930;2024-01-15T05:21:57;63.63;;;30.58;;
58137;SDS011;43955;47.362;18.930;2024-01-15T05:24:24;55.10;;;26.08;;
58137;SDS011;43955;47.362;18.930;2024-01-15T05:26:53;47.90;;;24.35;;
58137;SDS011;43955;47.362;18.930;2024-01-15T05:29:20;58.13;;;27.52;;
58137;SDS011;43955;47.362;18.930;2024-01-15T05:31:47;62.05;;;30.98;;
58137;SDS011;43955;47.362;18.930;2024-01-15T05:34:15;68.78;;;29.27;;
58137;SDS011;43955;47.362;18.930;2024-01-15T05:36:43;58.20;;;28.45;;
58137;SDS011;43955;47.362;18.930;2024-01-15T05:39:10;50.88;;;26.50;;
58137;SDS011;43955;47.362;18.930;2024-01-15T05:41:37;61.35;;;27.30;;
58137;SDS011;43955;47.362;18.930;2024-01-15T05:44:05;55.30;;;26.37;;
58137;SDS011;43955;47.362;18.930;2024-01-15T05:46:32;72.95;;;27.58;;
58137;SDS011;43955;47.362;18.930;2024-01-15T05:48:59;56.28;;;26.33;;
58137;SDS011;43955;47.362;18.930;2024-01-15T05:51:32;155.95;;;35.70;;
58137;SDS011;43955;47.362;18.930;2024-01-15T05:54:00;78.07;;;28.50;;
58137;SDS011;43955;47.362;18.930;2024-01-15T05:56:27;54.60;;;26.08;;
58137;SDS011;43955;47.362;18.930;2024-01-15T05:58:54;74.30;;;28.33;;
58137;SDS011;43955;47.362;18.930;2024-01-15T06:01:21;87.75;;;32.95;;
58137;SDS011;43955;47.362;18.930;2024-01-15T06:03:48;54.88;;;27.58;;
58137;SDS011;43955;47.362;18.930;2024-01-15T06:06:15;59.22;;;27.60;;
58137;SDS011;43955;47.362;18.930;2024-01-15T06:08:43;58.35;;;28.48;;
58137;SDS011;43955;47.362;18.930;2024-01-15T06:11:10;60.92;;;29.45;;
58137;SDS011;43955;47.362;18.930;2024-01-15T06:13:37;53.65;;;25.80;;
58137;SDS011;43955;47.362;18.930;2024-01-15T06:16:11;60.75;;;26.83;;
58137;SDS011;43955;47.362;18.930;2024-01-15T06:18:40;59.58;;;24.92;;
58137;SDS011;43955;47.362;18.930;2024-01-15T06:21:08;58.10;;;26.40;;
58137;SDS011;43955;47.362;18.930;2024-01-15T06:23:37;59.60;;;24.60;;
58137;SDS011;43955;47.362;18.930;2024-01-15T06:26:05;58.67;;;25.92;;
58137;SDS011;43955;47.362;18.930;2024-01-15T06:28:34;56.97;;;25.30;;
58137;SDS011;43955;47.362;18.930;2024-01-15T06:31:01;65.30;;;25.10;;
58137;SDS011;43955;47.362;18.930;2024-01-15T06:33:34;60.70;;;28.15;;
58137;SDS011;43955;47.362;18.930;2024-01-15T06:36:01;66.32;;;26.33;;
58137;SDS011;43955;47.362;18.930;2024-01-15T06:38:29;54.53;;;27.30;;
58137;SDS011;43955;47.362;18.930;2024-01-15T06:40:56;59.60;;;26.83;;
58137;SDS011;43955;47.362;18.930;2024-01-15T06:43:23;55.10;;;27.17;;
58137;SDS011;43955;47.362;18.930;2024-01-15T06:45:50;63.60;;;27.70;;
58137;SDS011;43955;47.362;18.930;2024-01-15T06:48:17;57.50;;;26.23;;
58137;SDS011;43955;47.362;18.930;2024-01-15T06:50:45;65.65;;;27.92;;
58137;SDS011;43955;47.362;18.930;2024-01-15T06:53:12;79.43;;;31.60;;
58137;SDS011;43955;47.362;18.930;2024-01-15T06:55:40;71.12;;;30.17;;
58137;SDS011;43955;47.362;18.930;2024-01-15T06:58:08;57.25;;;27.92;;
58137;SDS011;43955;47.362;18.930;2024-01-15T07:00:36;64.57;;;29.10;;
58137;SDS011;43955;47.362;18.930;2024-01-15T07:03:05;70.28;;;30.42;;
58137;SDS011;43955;47.362;18.930;2024-01-15T07:05:32;90.90;;;26.55;;
58137;SDS011;43955;47.362;18.930;2024-01-15T07:07:59;60.72;;;28.23;;
58137;SDS011;43955;47.362;18.930;2024-01-15T07:10:27;81.93;;;36.03;;
58137;SDS011;43955;47.362;18.930;2024-01-15T07:12:54;63.05;;;26.75;;
58137;SDS011;43955;47.362;18.930;2024-01-15T07:15:23;63.05;;;26.20;;
58137;SDS011;43955;47.362;18.930;2024-01-15T07:17:50;52.42;;;24.33;;
58137;SDS011;43955;47.362;18.930;2024-01-15T07:20:17;49.75;;;24.00;;
58137;SDS011;43955;47.362;18.930;2024-01-15T07:22:46;56.78;;;25.55;;
58137;SDS011;43955;47.362;18.930;2024-01-15T07:25:15;62.70;;;27.60;;
58137;SDS011;43955;47.362;18.930;2024-01-15T07:27:42;53.90;;;22.62;;
58137;SDS011;43955;47.362;18.930;2024-01-15T07:30:13;54.65;;;24.37;;
58137;SDS011;43955;47.362;18.930;2024-01-15T07:32:46;54.95;;;24.10;;
58137;SDS011;43955;47.362;18.930;2024-01-15T07:35:18;48.47;;;23.35;;
58137;SDS011;43955;47.362;18.930;2024-01-15T07:37:47;52.95;;;22.33;;
58137;SDS011;43955;47.362;18.930;2024-01-15T07:40:16;61.88;;;25.52;;
58137;SDS011;43955;47.362;18.930;2024-01-15T07:42:43;54.22;;;25.85;;
58137;SDS011;43955;47.362;18.930;2024-01-15T07:45:11;59.97;;;25.52;;
58137;SDS011;43955;47.362;18.930;2024-01-15T07:47:39;56.50;;;24.02;;
58137;SDS011;43955;47.362;18.930;2024-01-15T07:50:09;47.25;;;23.38;;
58137;SDS011;43955;47.362;18.930;2024-01-15T07:52:41;56.55;;;25.48;;
58137;SDS011;43955;47.362;18.930;2024-01-15T07:55:11;64.78;;;28.25;;
58137;SDS011;43955;47.362;18.930;2024-01-15T07:57:38;59.13;;;24.60;;
58137;SDS011;43955;47.362;18.930;2024-01-15T08:00:06;55.35;;;24.67;;
58137;SDS011;43955;47.362;18.930;2024-01-15T08:02:37;56.75;;;24.77;;
58137;SDS011;43955;47.362;18.930;2024-01-15T08:05:05;51.53;;;22.92;;
58137;SDS011;43955;47.362;18.930;2024-01-15T08:07:32;48.17;;;21.55;;
58137;SDS011;43955;47.362;18.930;2024-01-15T08:10:02;48.53;;;23.40;;
58137;SDS011;43955;47.362;18.930;2024-01-15T08:12:30;52.25;;;22.98;;
58137;SDS011;43955;47.362;18.930;2024-01-15T08:14:58;54.22;;;23.77;;
58137;SDS011;43955;47.362;18.930;2024-01-15T08:17:25;53.83;;;22.65;;
58137;SDS011;43955;47.362;18.930;2024-01-15T08:19:55;64.32;;;24.85;;
58137;SDS011;43955;47.362;18.930;2024-01-15T08:22:23;51.90;;;23.55;;
58137;SDS011;43955;47.362;18.930;2024-01-15T08:24:56;40.53;;;20.95;;
58137;SDS011;43955;47.362;18.930;2024-01-15T08:27:24;49.35;;;22.45;;
58137;SDS011;43955;47.362;18.930;2024-01-15T08:29:51;57.42;;;23.33;;
58137;SDS011;43955;47.362;18.930;2024-01-15T08:32:20;59.22;;;26.73;;
58137;SDS011;43955;47.362;18.930;2024-01-15T08:34:47;55.10;;;23.10;;
58137;SDS011;43955;47.362;18.930;2024-01-15T08:37:16;62.70;;;28.17;;
58137;SDS011;43955;47.362;18.930;2024-01-15T08:39:44;89.35;;;27.48;;
58137;SDS011;43955;47.362;18.930;2024-01-15T08:42:11;57.00;;;22.75;;
58137;SDS011;43955;47.362;18.930;2024-01-15T08:44:39;65.12;;;27.85;;
58137;SDS011;43955;47.362;18.930;2024-01-15T08:47:09;61.13;;;26.08;;
58137;SDS011;43955;47.362;18.930;2024-01-15T08:49:37;59.55;;;25.52;;
58137;SDS011;43955;47.362;18.930;2024-01-15T08:52:05;58.40;;;23.95;;
58137;SDS011;43955;47.362;18.930;2024-01-15T08:54:32;59.50;;;26.08;;
58137;SDS011;43955;47.362;18.930;2024-01-15T08:57:00;59.25;;;27.73;;
58137;SDS011;43955;47.362;18.930;2024-01-15T08:59:28;67.55;;;28.50;;
58137;SDS011;43955;47.362;18.930;2024-01-15T09:01:55;73.45;;;28.73;;
58137;SDS011;43955;47.362;18.930;2024-01-15T09:04:28;58.05;;;22.73;;
58137;SDS011;43955;47.362;18.930;2024-01-15T09:06:57;46.37;;;22.35;;
58137;SDS011;43955;47.362;18.930;2024-01-15T09:09:27;44.05;;;20.02;;
58137;SDS011;43955;47.362;18.930;2024-01-15T09:11:54;44.17;;;20.85;;
58137;SDS011;43955;47.362;18.930;2024-01-15T09:14:23;49.17;;;20.75;;
58137;SDS011;43955;47.362;18.930;2024-01-15T09:17:06;40.75;;;20.08;;
58137;SDS011;43955;47.362;18.930;2024-01-15T09:19:34;35.42;;;17.75;;
58137;SDS011;43955;47.362;18.930;2024-01-15T09:22:03;39.00;;;18.27;;
58137;SDS011;43955;47.362;18.930;2024-01-15T09:24:31;42.95;;;19.48;;
58137;SDS011;43955;47.362;18.930;2024-01-15T09:26:58;41.78;;;17.17;;
58137;SDS011;43955;47.362;18.930;2024-01-15T09:29:25;33.97;;;17.92;;
58137;SDS011;43955;47.362;18.930;2024-01-15T09:31:53;38.67;;;19.15;;
58137;SDS011;43955;47.362;18.930;2024-01-15T09:34:23;45.75;;;25.70;;
58137;SDS011;43955;47.362;18.930;2024-01-15T09:36:51;69.97;;;38.88;;
58137;SDS011;43955;47.362;18.930;2024-01-15T09:39:20;45.33;;;25.85;;
58137;SDS011;43955;47.362;18.930;2024-01-15T09:41:49;49.80;;;23.02;;
58137;SDS011;43955;47.362;18.930;2024-01-15T09:44:16;43.40;;;17.67;;
58137;SDS011;43955;47.362;18.930;2024-01-15T09:46:45;34.60;;;16.05;;
58137;SDS011;43955;47.362;18.930;2024-01-15T09:49:13;43.08;;;16.02;;
58137;SDS011;43955;47.362;18.930;2024-01-15T09:51:41;24.67;;;12.23;;
58137;SDS011;43955;47.362;18.930;2024-01-15T09:54:09;27.25;;;11.90;;
58137;SDS011;43955;47.362;18.930;2024-01-15T09:56:39;24.40;;;11.52;;
58137;SDS011;43955;47.362;18.930;2024-01-15T09:59:17;28.58;;;12.68;;
58137;SDS011;43955;47.362;18.930;2024-01-15T10:01:45;25.20;;;11.32;;
58137;SDS011;43955;47.362;18.930;2024-01-15T10:04:16;28.20;;;12.95;;
58137;SDS011;43955;47.362;18.930;2024-01-15T10:06:46;44.15;;;17.73;;
58137;SDS011;43955;47.362;18.930;2024-01-15T10:09:15;28.12;;;11.35;;
58137;SDS011;43955;47.362;18.930;2024-01-15T10:11:42;21.80;;;10.23;;
58137;SDS011;43955;47.362;18.930;2024-01-15T10:14:11;25.67;;;11.48;;
58137;SDS011;43955;47.362;18.930;2024-01-15T10:16:43;18.02;;;7.60;;
58137;SDS011;43955;47.362;18.930;2024-01-15T10:19:10;15.90;;;6.95;;
58137;SDS011;43955;47.362;18.930;2024-01-15T10:21:38;20.88;;;9.07;;
58137;SDS011;43955;47.362;18.930;2024-01-15T10:24:07;21.52;;;7.65;;
58137;SDS011;43955;47.362;18.930;2024-01-15T10:26:34;17.37;;;8.13;;
58137;SDS011;43955;47.362;18.930;2024-01-15T10:29:01;18.02;;;6.95;;
58137;SDS011;43955;47.362;18.930;2024-01-15T10:31:30;12.73;;;6.12;;
58137;SDS011;43955;47.362;18.930;2024-01-15T10:34:31;23.30;;;11.10;;
58137;SDS011;43955;47.362;18.930;2024-01-15T10:36:53;10.10;;;5.30;;
58137;SDS011;43955;47.362;18.930;2024-01-15T10:39:24;64.32;;;9.30;;
58137;SDS011;43955;47.362;18.930;2024-01-15T10:41:52;12.52;;;4.82;;
58137;SDS011;43955;47.362;18.930;2024-01-15T10:44:19;10.00;;;4.95;;
58137;SDS011;43955;47.362;18.930;2024-01-15T10:46:46;13.15;;;5.28;;
58137;SDS011;43955;47.362;18.930;2024-01-15T10:49:14;17.10;;;5.78;;
58137;SDS011;43955;47.362;18.930;2024-01-15T10:51:42;19.92;;;7.25;;
58137;SDS011;43955;47.362;18.930;2024-01-15T10:54:10;14.70;;;5.90;;
58137;SDS011;43955;47.362;18.930;2024-01-15T10:56:39;14.38;;;5.82;;
58137;SDS011;43955;47.362;18.930;2024-01-15T10:59:06;14.45;;;4.55;;
58137;SDS011;43955;47.362;18.930;2024-01-15T11:01:34;8.52;;;4.35;;
58137;SDS011;43955;47.362;18.930;2024-01-15T11:04:02;10.73;;;3.75;;
58137;SDS011;43955;47.362;18.930;2024-01-15T11:07:06;8.48;;;4.07;;
58137;SDS011;43955;47.362;18.930;2024-01-15T11:09:26;9.15;;;4.12;;
58137;SDS011;43955;47.362;18.930;2024-01-15T11:12:10;7.00;;;3.78;;
58137;SDS011;43955;47.362;18.930;2024-01-15T11:14:40;8.93;;;4.65;;
58137;SDS011;43955;47.362;18.930;2024-01-15T11:17:11;10.02;;;4.87;;
58137;SDS011;43955;47.362;18.930;2024-01-15T11:19:49;10.07;;;4.87;;
58137;SDS011;43955;47.362;18.930;2024-01-15T11:24:57;9.77;;;5.22;;
58137;SDS011;43955;47.362;18.930;2024-01-15T11:27:42;13.20;;;5.40;;
58137;SDS011;43955;47.362;18.930;2024-01-15T11:30:11;10.25;;;5.07;;
58137;SDS011;43955;47.362;18.930;2024-01-15T11:32:40;10.30;;;4.18;;
58137;SDS011;43955;47.362;18.930;2024-01-15T11:35:10;10.82;;;5.93;;
58137;SDS011;43955;47.362;18.930;2024-01-15T11:40:21;16.35;;;6.10;;
58137;SDS011;43955;47.362;18.930;2024-01-15T11:42:49;30.83;;;6.80;;
58137;SDS011;43955;47.362;18.930;2024-01-15T11:45:18;9.50;;;5.00;;
58137;SDS011;43955;47.362;18.930;2024-01-15T11:50:26;9.68;;;5.05;;
58137;SDS011;43955;47.362;18.930;2024-01-15T11:53:02;15.60;;;6.78;;
58137;SDS011;43955;47.362;18.930;2024-01-15T11:55:35;19.95;;;8.55;;
58137;SDS011;43955;47.362;18.930;2024-01-15T11:58:09;11.40;;;5.75;;
58137;SDS011;43955;47.362;18.930;2024-01-15T12:00:39;11.70;;;6.50;;
58137;SDS011;43955;47.362;18.930;2024-01-15T12:03:17;8.73;;;5.28;;
58137;SDS011;43955;47.362;18.930;2024-01-15T12:05:44;15.00;;;6.05;;
58137;SDS011;43955;47.362;18.930;2024-01-15T12:08:21;10.37;;;4.20;;
58137;SDS011;43955;47.362;18.930;2024-01-15T12:10:49;8.13;;;5.22;;
58137;SDS011;43955;47.362;18.930;2024-01-15T12:13:18;10.60;;;3.60;;
58137;SDS011;43955;47.362;18.930;2024-01-15T12:15:46;64.00;;;30.77;;
58137;SDS011;43955;47.362;18.930;2024-01-15T12:18:16;31.73;;;15.18;;
58137;SDS011;43955;47.362;18.930;2024-01-15T12:20:49;31.83;;;18.48;;
58137;SDS011;43955;47.362;18.930;2024-01-15T12:23:17;15.07;;;8.57;;
58137;SDS011;43955;47.362;18.930;2024-01-15T12:25:45;6.75;;;3.17;;
58137;SDS011;43955;47.362;18.930;2024-01-15T12:28:15;13.18;;;5.25;;
58137;SDS011;43955;47.362;18.930;2024-01-15T12:30:46;11.05;;;4.18;;
58137;SDS011;43955;47.362;18.930;2024-01-15T12:33:17;29.75;;;6.75;;
58137;SDS011;43955;47.362;18.930;2024-01-15T12:35:44;13.95;;;3.72;;
58137;SDS011;43955;47.362;18.930;2024-01-15T12:38:12;7.62;;;3.55;;
58137;SDS011;43955;47.362;18.930;2024-01-15T12:40:43;7.45;;;3.65;;
58137;SDS011;43955;47.362;18.930;2024-01-15T12:43:13;14.02;;;3.17;;
58137;SDS011;43955;47.362;18.930;2024-01-15T12:45:40;11.15;;;4.28;;
58137;SDS011;43955;47.362;18.930;2024-01-15T12:48:09;11.02;;;2.65;;
58137;SDS011;43955;47.362;18.930;2024-01-15T12:50:36;8.52;;;3.75;;
58137;SDS011;43955;47.362;18.930;2024-01-15T12:53:03;7.60;;;3.10;;
58137;SDS011;43955;47.362;18.930;2024-01-15T12:55:30;10.52;;;3.35;;
58137;SDS011;43955;47.362;18.930;2024-01-15T12:57:58;5.28;;;2.58;;
58137;SDS011;43955;47.362;18.930;2024-01-15T13:00:25;5.68;;;2.33;;
58137;SDS011;43955;47.362;18.930;2024-01-15T13:02:53;6.03;;;3.40;;
58137;SDS011;43955;47.362;18.930;2024-01-15T13:05:22;4.32;;;2.10;;
58137;SDS011;43955;47.362;18.930;2024-01-15T13:07:50;5.55;;;2.47;;
58137;SDS011;43955;47.362;18.930;2024-01-15T13:10:17;4.12;;;1.80;;
58137;SDS011;43955;47.362;18.930;2024-01-15T13:12:45;6.65;;;3.10;;
58137;SDS011;43955;47.362;18.930;2024-01-15T13:15:13;11.77;;;2.95;;
58137;SDS011;43955;47.362;18.930;2024-01-15T13:17:41;5.03;;;2.45;;
58137;SDS011;43955;47.362;18.930;2024-01-15T13:20:11;40.47;;;5.25;;
58137;SDS011;43955;47.362;18.930;2024-01-15T13:22:40;12.63;;;3.65;;
58137;SDS011;43955;47.362;18.930;2024-01-15T13:25:10;26.27;;;9.00;;
58137;SDS011;43955;47.362;18.930;2024-01-15T13:27:39;8.30;;;2.95;;
58137;SDS011;43955;47.362;18.930;2024-01-15T13:30:08;8.43;;;2.72;;
58137;SDS011;43955;47.362;18.930;2024-01-15T13:32:37;6.28;;;2.60;;
58137;SDS011;43955;47.362;18.930;2024-01-15T13:35:05;6.80;;;2.37;;
58137;SDS011;43955;47.362;18.930;2024-01-15T13:37:37;6.03;;;3.20;;
58137;SDS011;43955;47.362;18.930;2024-01-15T13:40:04;13.95;;;4.15;;
58137;SDS011;43955;47.362;18.930;2024-01-15T13:42:34;8.45;;;2.92;;
58137;SDS011;43955;47.362;18.930;2024-01-15T13:45:05;7.50;;;2.47;;
58137;SDS011;43955;47.362;18.930;2024-01-15T13:47:32;4.40;;;2.47;;
58137;SDS011;43955;47.362;18.930;2024-01-15T13:50:01;7.40;;;3.22;;
58137;SDS011;43955;47.362;18.930;2024-01-15T13:52:29;5.95;;;2.70;;
58137;SDS011;43955;47.362;18.930;2024-01-15T13:54:57;7.22;;;3.30;;
58137;SDS011;43955;47.362;18.930;2024-01-15T13:57:24;5.47;;;2.45;;
58137;SDS011;43955;47.362;18.930;2024-01-15T13:59:51;6.12;;;3.25;;
58137;SDS011;43955;47.362;18.930;2024-01-15T14:02:18;8.10;;;3.95;;
58137;SDS011;43955;47.362;18.930;2024-01-15T14:04:50;6.55;;;2.50;;
58137;SDS011;43955;47.362;18.930;2024-01-15T14:07:17;16.48;;;2.70;;
58137;SDS011;43955;47.362;18.930;2024-01-15T14:09:44;6.10;;;2.65;;
58137;SDS011;43955;47.362;18.930;2024-01-15T14:12:12;8.32;;;3.03;;
58137;SDS011;43955;47.362;18.930;2024-01-15T14:14:39;8.55;;;3.58;;
58137;SDS011;43955;47.362;18.930;2024-01-15T14:17:07;9.55;;;3.28;;
58137;SDS011;43955;47.362;18.930;2024-01-15T14:19:35;7.28;;;3.08;;
58137;SDS011;43955;47.362;18.930;2024-01-15T14:22:03;67.12;;;34.28;;
58137;SDS011;43955;47.362;18.930;2024-01-15T14:24:31;33.65;;;18.05;;
58137;SDS011;43955;47.362;18.930;2024-01-15T14:26:59;43.87;;;24.45;;
58137;SDS011;43955;47.362;18.930;2024-01-15T14:29:27;44.65;;;24.48;;
58137;SDS011;43955;47.362;18.930;2024-01-15T14:31:54;37.35;;;23.15;;